Terminal Aerodrome Forecast
Issued by NWS

Home | Current Version | Previous Version | Text Only | Print | Product List | Glossary On
Versions: 1 2 3 4 5 6 7 8 9 10 11 12 13 14 15 16 17 18 19 20 21 22 23 24
000
FTAK31 PANC 301735
TAFAAQ
TAF
PAAQ 301735Z 3018/0118 36006KT P6SM SCT080
     FM302000 VRB04KT P6SM SKC
     FM011200 34007KT P6SM SKC=

USA.gov is the U.S. government's official web portal to all federal, state and local government web resources and services.